createdAt,value
2018-01-03T00:01:55.407Z,4.90
2018-01-03T00:04:23.400Z,4.90
2018-01-03T00:06:51.395Z,4.90
2018-01-03T00:09:20.152Z,5.00
2018-01-03T00:11:48.151Z,4.90
2018-01-03T00:14:17.679Z,4.90
2018-01-03T00:16:45.655Z,4.90
2018-01-03T00:19:13.659Z,4.90
2018-01-03T00:21:42.446Z,5.00
2018-01-03T00:24:10.422Z,5.00
2018-01-03T00:26:38.430Z,5.10
2018-01-03T00:29:06.447Z,5.10
2018-01-03T00:31:34.435Z,5.10
2018-01-03T00:34:02.461Z,5.10
2018-01-03T00:36:30.736Z,5.00
2018-01-03T00:38:58.704Z,5.00
2018-01-03T00:41:26.720Z,5.10
2018-01-03T00:43:54.721Z,5.00
2018-01-03T00:46:23.459Z,5.10
2018-01-03T00:48:51.455Z,5.00
2018-01-03T00:51:19.459Z,5.10
2018-01-03T00:53:47.445Z,5.20
2018-01-03T00:56:15.440Z,5.20
2018-01-03T00:58:44.227Z,5.20
2018-01-03T01:01:12.200Z,5.20
2018-01-03T01:03:40.202Z,5.30
2018-01-03T01:06:08.201Z,5.30
2018-01-03T01:08:36.947Z,5.30
2018-01-03T01:11:05.720Z,5.30
2018-01-03T01:13:33.799Z,5.30
2018-01-03T01:16:02.620Z,5.30
2018-01-03T01:18:30.704Z,5.30
2018-01-03T01:20:58.776Z,5.30
2018-01-03T01:23:26.836Z,5.40
2018-01-03T01:25:54.873Z,5.40
2018-01-03T01:28:22.930Z,5.50
2018-01-03T01:30:50.995Z,5.50
2018-01-03T01:33:19.024Z,5.50
2018-01-03T01:35:47.092Z,5.50
2018-01-03T01:38:15.124Z,5.40
2018-01-03T01:40:43.176Z,5.40
2018-01-03T01:43:11.239Z,5.30
2018-01-03T01:45:39.275Z,5.30
2018-01-03T01:48:07.330Z,5.20
2018-01-03T01:50:35.364Z,5.20
2018-01-03T01:53:03.404Z,5.10
2018-01-03T01:55:31.459Z,5.10
2018-01-03T01:57:59.534Z,5.10
2018-01-03T02:00:27.587Z,5.00
2018-01-03T02:02:55.609Z,5.10
2018-01-03T02:05:23.648Z,5.00
2018-01-03T02:07:52.489Z,5.00
2018-01-03T02:10:20.512Z,4.90
2018-01-03T02:12:48.568Z,4.90
2018-01-03T02:15:16.604Z,4.90
2018-01-03T02:17:44.661Z,4.90
2018-01-03T02:20:12.694Z,4.90
2018-01-03T02:22:41.505Z,4.90
2018-01-03T02:25:09.548Z,4.80
2018-01-03T02:27:37.580Z,4.90
2018-01-03T02:30:05.633Z,4.80
2018-01-03T02:32:33.661Z,4.80
2018-01-03T02:35:01.712Z,4.70
2018-01-03T02:37:30.517Z,4.80
2018-01-03T02:39:59.348Z,4.70
2018-01-03T02:42:27.398Z,4.60
2018-01-03T02:44:56.191Z,4.70
2018-01-03T02:47:25.008Z,4.60
2018-01-03T02:49:53.925Z,4.60
2018-01-03T02:52:21.973Z,4.60
2018-01-03T02:54:50.013Z,4.60
2018-01-03T02:57:18.060Z,4.60
2018-01-03T02:59:46.872Z,4.60
2018-01-03T03:02:14.912Z,4.50
2018-01-03T03:04:42.964Z,4.60
2018-01-03T03:07:10.989Z,4.60
2018-01-03T03:09:39.028Z,4.50
2018-01-03T03:12:07.081Z,4.50
2018-01-03T03:14:35.112Z,4.50
2018-01-03T03:17:03.169Z,4.60
2018-01-03T03:19:31.201Z,4.60
2018-01-03T03:21:59.245Z,4.60
2018-01-03T03:24:27.311Z,4.60
2018-01-03T03:26:55.355Z,4.50
2018-01-03T03:29:23.396Z,4.50
2018-01-03T03:31:51.420Z,4.60
2018-01-03T03:34:19.464Z,4.60
2018-01-03T03:36:47.492Z,4.70
2018-01-03T03:39:15.545Z,4.70
2018-01-03T03:41:43.612Z,4.80
2018-01-03T03:44:11.632Z,4.80
2018-01-03T03:46:39.689Z,4.80
2018-01-03T03:49:07.712Z,4.80
2018-01-03T03:51:35.766Z,4.80
2018-01-03T03:54:03.820Z,4.90
2018-01-03T03:56:32.699Z,4.80
2018-01-03T03:59:01.504Z,4.90
2018-01-03T04:01:30.297Z,4.90
2018-01-03T04:03:59.108Z,4.90
2018-01-03T04:06:27.987Z,4.90
2018-01-03T04:08:56.761Z,4.90
2018-01-03T04:11:24.828Z,4.90
2018-01-03T04:13:52.863Z,4.90
2018-01-03T04:16:20.913Z,4.90
2018-01-03T04:18:48.941Z,4.90
2018-01-03T04:21:17.727Z,4.90
2018-01-03T04:23:45.778Z,4.90
2018-01-03T04:26:14.566Z,4.90
2018-01-03T04:28:42.616Z,4.80
2018-01-03T04:31:11.422Z,4.90
2018-01-03T04:33:39.477Z,4.90
2018-01-03T04:36:07.524Z,4.90
2018-01-03T04:38:35.653Z,4.90
2018-01-03T04:41:03.716Z,4.90
2018-01-03T04:43:31.778Z,4.90
2018-01-03T04:45:59.804Z,4.90
2018-01-03T04:48:28.615Z,5.00
2018-01-03T04:50:57.413Z,5.00
2018-01-03T04:53:26.235Z,5.10
2018-01-03T04:55:54.302Z,5.00
2018-01-03T04:58:23.095Z,5.10
2018-01-03T05:00:51.912Z,5.10
2018-01-03T05:03:20.713Z,5.10
2018-01-03T05:05:49.539Z,5.10
2018-01-03T05:08:17.583Z,5.10
2018-01-03T05:10:45.640Z,5.10
2018-01-03T05:13:13.680Z,5.20
2018-01-03T05:15:41.723Z,5.20
2018-01-03T05:18:09.772Z,5.30
2018-01-03T05:20:37.804Z,5.30
2018-01-03T05:23:05.861Z,5.30
2018-01-03T05:25:33.924Z,5.30
2018-01-03T05:28:01.962Z,5.40
2018-01-03T05:30:30.812Z,5.40
2018-01-03T05:32:58.832Z,5.40
2018-01-03T05:35:26.884Z,5.50
2018-01-03T05:37:54.909Z,5.50
2018-01-03T05:40:22.961Z,5.50
2018-01-03T05:42:51.036Z,5.50
2018-01-03T05:45:19.082Z,5.50
2018-01-03T05:47:47.900Z,5.70
2018-01-03T05:50:15.951Z,5.60
2018-01-03T05:52:44.760Z,5.70
2018-01-03T05:55:13.588Z,5.80
2018-01-03T05:57:41.629Z,5.80
2018-01-03T06:00:09.680Z,5.80
2018-01-03T06:02:37.724Z,5.80
2018-01-03T06:05:05.764Z,5.80
2018-01-03T06:07:33.809Z,5.90
2018-01-03T06:10:01.876Z,6.00
2018-01-03T06:12:29.948Z,6.00
2018-01-03T06:14:58.776Z,6.10
2018-01-03T06:17:26.820Z,6.00
2018-01-03T06:19:55.621Z,6.20
2018-01-03T06:22:24.444Z,6.20
2018-01-03T06:24:52.484Z,6.20
2018-01-03T06:27:22.038Z,6.20
2018-01-03T06:29:50.844Z,6.40
2018-01-03T06:32:18.880Z,6.30
2018-01-03T06:34:46.929Z,6.30
2018-01-03T06:37:14.962Z,6.30
2018-01-03T06:39:43.009Z,6.40
2018-01-03T06:42:11.068Z,6.40
2018-01-03T06:44:39.101Z,6.50
2018-01-03T06:47:07.156Z,6.60
2018-01-03T06:49:35.177Z,6.60
2018-01-03T06:52:03.235Z,6.70
2018-01-03T06:54:31.288Z,6.80
2018-01-03T06:56:59.324Z,6.80
2018-01-03T06:59:27.380Z,6.90
2018-01-03T07:01:55.396Z,6.90
2018-01-03T07:04:23.440Z,7.00
2018-01-03T07:06:51.505Z,7.10
2018-01-03T07:09:19.541Z,7.10
2018-01-03T07:11:47.599Z,7.10
2018-01-03T07:14:15.621Z,7.20
2018-01-03T07:16:43.739Z,7.30
2018-01-03T07:19:12.701Z,7.40
2018-01-03T07:21:40.740Z,7.40
2018-01-03T07:24:08.829Z,7.50
2018-01-03T07:26:36.892Z,7.50
2018-01-03T07:29:04.925Z,7.50
2018-01-03T07:31:32.985Z,7.60
2018-01-03T07:34:01.028Z,7.60
2018-01-03T07:36:29.852Z,7.70
2018-01-03T07:38:57.881Z,7.70
2018-01-03T07:41:25.936Z,7.70
2018-01-03T07:43:53.984Z,7.80
2018-01-03T07:46:22.785Z,7.90
2018-01-03T07:48:51.608Z,8.00
2018-01-03T07:51:20.397Z,8.00
2018-01-03T07:53:49.214Z,8.10
2018-01-03T07:56:17.263Z,8.00
2018-01-03T07:58:45.288Z,8.10
2018-01-03T08:01:13.351Z,8.10
2018-01-03T08:03:42.149Z,8.40
2018-01-03T08:06:10.965Z,8.40
2018-01-03T08:08:39.037Z,8.40
2018-01-03T08:11:07.845Z,7.10
2018-01-03T08:13:35.904Z,7.10
2018-01-03T08:16:04.703Z,6.60
2018-01-03T08:18:32.745Z,6.50
2018-01-03T08:21:00.793Z,6.30
2018-01-03T08:23:28.845Z,6.30
2018-01-03T08:25:56.892Z,6.10
2018-01-03T08:28:24.925Z,6.10
2018-01-03T08:30:52.972Z,6.00
2018-01-03T08:33:21.001Z,5.90
2018-01-03T08:35:49.816Z,5.80
2018-01-03T08:38:17.856Z,5.80
2018-01-03T08:40:45.944Z,5.90
2018-01-03T08:43:14.001Z,5.90
2018-01-03T08:45:42.033Z,5.90
2018-01-03T08:48:10.851Z,5.80
2018-01-03T08:50:39.681Z,5.90
2018-01-03T08:53:07.724Z,5.80
2018-01-03T08:55:36.532Z,5.80
2018-01-03T08:58:05.348Z,5.90
2018-01-03T09:00:33.392Z,5.90
2018-01-03T09:03:01.452Z,5.90
2018-01-03T09:05:29.498Z,4.90
2018-01-03T09:07:57.541Z,5.90
2018-01-03T09:10:27.102Z,5.90
2018-01-03T09:12:55.132Z,5.90
2018-01-03T09:15:23.198Z,5.90
2018-01-03T09:17:51.236Z,5.90
2018-01-03T09:20:20.028Z,6.00
2018-01-03T09:22:48.836Z,6.00
2018-01-03T09:25:17.628Z,6.10
2018-01-03T09:27:46.444Z,6.10
2018-01-03T09:30:15.265Z,6.10
2018-01-03T09:32:43.304Z,6.10
2018-01-03T09:35:11.349Z,6.10
2018-01-03T09:37:39.377Z,6.00
2018-01-03T09:40:07.435Z,6.10
2018-01-03T09:42:35.509Z,6.10
2018-01-03T09:45:03.560Z,6.10
2018-01-03T09:47:31.615Z,6.20
2018-01-03T09:49:59.640Z,6.10
2018-01-03T09:52:27.709Z,6.10
2018-01-03T09:54:55.758Z,6.10
2018-01-03T09:57:23.784Z,6.20
2018-01-03T09:59:51.836Z,6.20
2018-01-03T10:02:20.639Z,6.30
2018-01-03T10:04:49.456Z,6.40
2018-01-03T10:07:17.497Z,6.30
2018-01-03T10:09:45.553Z,6.40
2018-01-03T10:12:13.632Z,6.50
2018-01-03T10:14:41.664Z,6.50
2018-01-03T10:17:09.712Z,6.50
2018-01-03T10:19:37.736Z,6.60
2018-01-03T10:22:05.785Z,6.70
2018-01-03T10:24:33.869Z,6.80
2018-01-03T10:27:01.896Z,6.90
2018-01-03T10:29:30.748Z,7.10
2018-01-03T10:31:58.808Z,7.00
2018-01-03T10:34:26.855Z,7.10
2018-01-03T10:36:54.893Z,7.00
2018-01-03T10:39:22.956Z,7.00
2018-01-03T10:41:51.780Z,7.10
2018-01-03T10:44:19.813Z,7.00
2018-01-03T10:46:48.640Z,7.20
2018-01-03T10:49:16.672Z,7.20
2018-01-03T10:51:45.269Z,7.30
2018-01-03T10:54:13.317Z,7.40
2018-01-03T10:56:41.340Z,7.50
2018-01-03T10:59:09.404Z,7.50
2018-01-03T11:01:37.441Z,7.50
2018-01-03T11:04:06.262Z,7.70
2018-01-03T11:06:34.308Z,7.70
2018-01-03T11:09:02.337Z,7.80
2018-01-03T11:11:30.410Z,8.00
2018-01-03T11:13:58.447Z,8.10
2018-01-03T11:16:26.492Z,8.10
2018-01-03T11:18:54.538Z,8.20
2018-01-03T11:21:23.337Z,8.30
2018-01-03T11:23:52.160Z,8.20
2018-01-03T11:26:20.988Z,8.20
2018-01-03T11:28:49.024Z,8.20
2018-01-03T11:31:17.065Z,8.20
2018-01-03T11:33:45.106Z,8.20
2018-01-03T11:36:13.924Z,8.00
2018-01-03T11:38:41.945Z,7.90
2018-01-03T11:41:09.999Z,7.80
2018-01-03T11:43:38.044Z,7.80
2018-01-03T11:46:06.836Z,7.90
2018-01-03T11:48:34.897Z,7.80
2018-01-03T11:51:02.951Z,8.00
2018-01-03T11:53:31.007Z,7.90
2018-01-03T11:55:59.810Z,8.00
2018-01-03T11:58:28.628Z,8.00
2018-01-03T12:00:56.682Z,8.00
2018-01-03T12:03:24.728Z,8.00
2018-01-03T12:05:52.777Z,8.00
2018-01-03T12:08:20.819Z,8.10
2018-01-03T12:10:48.876Z,8.10
2018-01-03T12:13:16.932Z,8.00
2018-01-03T12:15:44.985Z,8.00
2018-01-03T12:18:13.024Z,7.90
2018-01-03T12:20:41.061Z,8.00
2018-01-03T12:23:09.911Z,8.00
2018-01-03T12:25:38.002Z,7.90
2018-01-03T12:28:06.061Z,8.00
2018-01-03T12:30:34.330Z,8.00
2018-01-03T12:33:03.205Z,8.20
2018-01-03T12:35:31.464Z,8.20
2018-01-03T12:37:59.544Z,8.40
2018-01-03T12:40:27.607Z,8.20
2018-01-03T12:42:55.664Z,7.60
2018-01-03T12:45:24.469Z,6.90
2018-01-03T12:47:53.288Z,6.70
2018-01-03T12:50:21.320Z,6.60
2018-01-03T12:52:49.368Z,6.40
2018-01-03T12:55:17.429Z,6.20
2018-01-03T12:57:45.469Z,6.10
2018-01-03T13:00:13.523Z,6.10
2018-01-03T13:02:41.550Z,6.10
2018-01-03T13:05:09.597Z,6.20
2018-01-03T13:07:37.648Z,6.40
2018-01-03T13:10:05.682Z,6.80
2018-01-03T13:12:33.720Z,7.00
2018-01-03T13:15:01.756Z,7.30
2018-01-03T13:17:29.816Z,7.70
2018-01-03T13:19:58.016Z,8.00
2018-01-03T13:22:26.045Z,8.10
2018-01-03T13:24:54.870Z,8.00
2018-01-03T13:27:22.900Z,8.00
2018-01-03T13:29:50.944Z,7.90
2018-01-03T13:32:18.998Z,7.80
2018-01-03T13:34:47.823Z,7.80
2018-01-03T13:37:15.865Z,7.70
2018-01-03T13:39:43.896Z,7.80
2018-01-03T13:42:11.944Z,7.70
2018-01-03T13:44:40.768Z,7.90
2018-01-03T13:47:08.792Z,7.90
2018-01-03T13:49:36.846Z,8.00
2018-01-03T13:52:04.881Z,8.10
2018-01-03T13:54:32.941Z,8.20
2018-01-03T13:57:00.991Z,8.40
2018-01-03T13:59:29.020Z,8.30
2018-01-03T14:01:57.068Z,8.30
2018-01-03T14:04:25.108Z,8.30
2018-01-03T14:06:53.156Z,8.30
2018-01-03T14:09:21.212Z,8.20
2018-01-03T14:11:49.233Z,8.10
2018-01-03T14:14:18.083Z,7.90
2018-01-03T14:16:46.876Z,7.90
2018-01-03T14:19:15.689Z,7.80
2018-01-03T14:21:43.754Z,7.70
2018-01-03T14:24:12.574Z,7.70
2018-01-03T14:26:40.620Z,7.70
2018-01-03T14:29:08.650Z,7.70
2018-01-03T14:31:36.697Z,7.70
2018-01-03T14:34:04.824Z,7.80
2018-01-03T14:36:32.874Z,7.80
2018-01-03T14:39:01.673Z,7.70
2018-01-03T14:41:29.721Z,7.70
2018-01-03T14:43:58.540Z,7.60
2018-01-03T14:46:26.574Z,7.60
2018-01-03T14:48:54.621Z,7.60
2018-01-03T14:51:22.653Z,7.60
2018-01-03T14:53:50.680Z,7.50
2018-01-03T14:56:18.732Z,7.50
2018-01-03T14:58:46.763Z,7.50
2018-01-03T15:01:15.577Z,7.50
2018-01-03T15:03:44.400Z,7.50
2018-01-03T15:06:12.432Z,7.40
2018-01-03T15:08:40.484Z,7.50
2018-01-03T15:11:09.276Z,7.50
2018-01-03T15:13:37.332Z,7.50
2018-01-03T15:16:06.145Z,7.50
2018-01-03T15:18:34.187Z,7.50
2018-01-03T15:21:02.239Z,7.50
2018-01-03T15:23:30.293Z,7.50
2018-01-03T15:25:58.363Z,7.60
2018-01-03T15:28:27.153Z,7.60
2018-01-03T15:30:55.979Z,7.70
2018-01-03T15:33:24.766Z,7.60
2018-01-03T15:35:53.590Z,7.60
2018-01-03T15:38:21.633Z,7.60
2018-01-03T15:40:49.693Z,7.60
2018-01-03T15:43:18.509Z,7.60
2018-01-03T15:45:46.553Z,7.50
2018-01-03T15:48:14.596Z,7.50
2018-01-03T15:50:43.396Z,7.40
2018-01-03T15:53:12.212Z,7.40
2018-01-03T15:55:40.266Z,7.40
2018-01-03T15:58:08.292Z,7.40
2018-01-03T16:00:36.349Z,7.40
2018-01-03T16:03:05.149Z,7.30
2018-01-03T16:05:33.964Z,7.40
2018-01-03T16:08:02.792Z,7.30
2018-01-03T16:10:30.825Z,7.30
2018-01-03T16:12:58.869Z,7.30
2018-01-03T16:15:26.932Z,7.30
2018-01-03T16:17:54.985Z,7.40
2018-01-03T16:20:23.792Z,7.30
2018-01-03T16:22:52.593Z,7.30
2018-01-03T16:25:21.415Z,7.30
2018-01-03T16:27:52.957Z,7.20
2018-01-03T16:30:21.004Z,7.30
2018-01-03T16:32:49.041Z,7.30
2018-01-03T16:35:17.856Z,7.30
2018-01-03T16:37:45.910Z,7.30
2018-01-03T16:40:13.947Z,7.30
2018-01-03T16:42:41.993Z,7.30
2018-01-03T16:45:10.043Z,7.30
2018-01-03T16:47:38.096Z,7.30
2018-01-03T16:50:06.144Z,7.30
2018-01-03T16:52:40.634Z,7.30
2018-01-03T16:55:08.688Z,7.30
2018-01-03T16:57:36.716Z,7.40
2018-01-03T17:00:04.766Z,7.30
2018-01-03T17:02:32.801Z,7.30
2018-01-03T17:05:01.626Z,7.30
2018-01-03T17:07:29.697Z,7.30
2018-01-03T17:09:58.485Z,7.20
2018-01-03T17:12:27.329Z,7.20
2018-01-03T17:14:55.343Z,7.20
2018-01-03T17:17:23.403Z,7.20
2018-01-03T17:19:51.457Z,7.20
2018-01-03T17:22:19.492Z,7.20
2018-01-03T17:24:47.574Z,7.30
2018-01-03T17:27:15.585Z,7.20
2018-01-03T17:29:44.400Z,7.20
2018-01-03T17:32:13.201Z,7.20
2018-01-03T17:34:42.017Z,7.10
2018-01-03T17:37:10.050Z,7.10
2018-01-03T17:39:38.100Z,7.20
2018-01-03T17:42:06.147Z,7.20
2018-01-03T17:44:34.959Z,7.20
2018-01-03T17:47:03.783Z,7.10
2018-01-03T17:49:31.820Z,7.10
2018-01-03T17:51:59.849Z,7.10
2018-01-03T17:54:27.901Z,7.00
2018-01-03T17:56:56.700Z,6.90
2018-01-03T17:59:25.517Z,7.00
2018-01-03T18:01:54.329Z,7.00
2018-01-03T18:04:22.361Z,6.90
2018-01-03T18:06:50.417Z,6.80
2018-01-03T18:09:18.441Z,6.80
2018-01-03T18:11:46.492Z,6.80
2018-01-03T18:14:14.529Z,6.80
2018-01-03T18:16:42.621Z,6.90
2018-01-03T18:19:11.427Z,6.70
2018-01-03T18:21:39.455Z,6.70
2018-01-03T18:24:07.543Z,6.70
2018-01-03T18:26:35.604Z,6.70
2018-01-03T18:29:03.641Z,6.80
2018-01-03T18:31:31.672Z,6.70
2018-01-03T18:33:59.737Z,6.80
2018-01-03T18:36:27.801Z,6.80
2018-01-03T18:38:55.857Z,6.80
2018-01-03T18:41:23.950Z,6.70
2018-01-03T18:43:51.964Z,6.60
2018-01-03T18:46:20.040Z,6.40
2018-01-03T18:48:48.856Z,6.30
2018-01-03T18:51:16.893Z,6.20
2018-01-03T18:53:44.946Z,6.30
2018-01-03T18:56:12.968Z,6.20
2018-01-03T18:58:41.024Z,6.20
2018-01-03T19:01:09.078Z,6.20
2018-01-03T19:03:37.118Z,6.20
2018-01-03T19:06:05.176Z,6.20
2018-01-03T19:08:33.224Z,6.20
2018-01-03T19:11:01.273Z,6.20
2018-01-03T19:13:30.082Z,6.30
2018-01-03T19:15:58.920Z,6.30
2018-01-03T19:18:26.946Z,6.20
2018-01-03T19:20:56.509Z,6.20
2018-01-03T19:23:24.565Z,6.20
2018-01-03T19:25:52.590Z,6.20
2018-01-03T19:28:20.648Z,6.20
2018-01-03T19:30:49.444Z,6.20
2018-01-03T19:33:18.256Z,6.20
2018-01-03T19:35:46.309Z,6.20
2018-01-03T19:38:14.348Z,6.20
2018-01-03T19:40:42.384Z,6.30
2018-01-03T19:43:10.422Z,6.30
2018-01-03T19:45:38.481Z,6.40
2018-01-03T19:48:06.512Z,6.30
2018-01-03T19:50:34.577Z,6.30
2018-01-03T19:53:02.633Z,6.40
2018-01-03T19:55:30.668Z,6.40
2018-01-03T19:57:58.849Z,6.40
2018-01-03T20:00:26.932Z,6.40
2018-01-03T20:02:54.988Z,6.50
2018-01-03T20:05:23.033Z,6.50
2018-01-03T20:07:51.848Z,6.50
2018-01-03T20:10:20.668Z,6.50
2018-01-03T20:12:48.708Z,6.40
2018-01-03T20:15:18.267Z,6.50
2018-01-03T20:17:46.313Z,6.50
2018-01-03T20:20:15.140Z,6.60
2018-01-03T20:22:43.193Z,6.50
2018-01-03T20:25:11.233Z,6.50
2018-01-03T20:27:39.286Z,6.50
2018-01-03T20:30:08.087Z,6.50
2018-01-03T20:32:36.908Z,6.50
2018-01-03T20:35:04.950Z,6.40
2018-01-03T20:37:34.500Z,6.40
2018-01-03T20:40:03.335Z,6.50
2018-01-03T20:42:31.369Z,6.50
2018-01-03T20:45:01.075Z,6.50
2018-01-03T20:47:29.136Z,6.50
2018-01-03T20:49:57.185Z,6.50
2018-01-03T20:52:25.864Z,6.50
2018-01-03T20:54:54.662Z,6.50
2018-01-03T20:57:23.476Z,6.50
2018-01-03T20:59:51.514Z,6.50
2018-01-03T21:02:19.565Z,6.60
2018-01-03T21:04:47.595Z,6.60
2018-01-03T21:07:15.644Z,6.60
2018-01-03T21:09:43.665Z,6.60
2018-01-03T21:12:11.715Z,6.60
2018-01-03T21:14:39.769Z,6.50
2018-01-03T21:17:07.807Z,6.60
2018-01-03T21:19:35.884Z,6.50
2018-01-03T21:22:03.952Z,6.60
2018-01-03T21:24:32.021Z,6.50
2018-01-03T21:27:00.079Z,6.40
2018-01-03T21:29:28.900Z,6.30
2018-01-03T21:31:56.957Z,6.20
2018-01-03T21:34:25.773Z,6.30
2018-01-03T21:36:53.831Z,6.30
2018-01-03T21:39:22.635Z,6.30
2018-01-03T21:41:50.700Z,6.30
2018-01-03T21:44:18.757Z,6.30
2018-01-03T21:46:46.780Z,6.30
2018-01-03T21:49:14.852Z,6.30
2018-01-03T21:51:42.885Z,6.30
2018-01-03T21:54:10.937Z,6.30
2018-01-03T21:56:38.992Z,6.40
2018-01-03T21:59:07.033Z,7.50
2018-01-03T22:01:35.097Z,6.50
2018-01-03T22:04:03.905Z,6.60
2018-01-03T22:06:33.534Z,6.60
2018-01-03T22:09:01.591Z,6.60
2018-01-03T22:11:29.675Z,6.60
2018-01-03T22:13:57.728Z,6.60
2018-01-03T22:16:25.757Z,6.70
2018-01-03T22:18:53.813Z,6.60
2018-01-03T22:21:21.849Z,6.70
2018-01-03T22:23:49.928Z,6.70
2018-01-03T22:26:17.987Z,6.70
2018-01-03T22:28:46.802Z,6.70
2018-01-03T22:31:14.849Z,6.70
2018-01-03T22:33:42.888Z,6.80
2018-01-03T22:36:10.948Z,6.80
2018-01-03T22:38:39.768Z,6.80
2018-01-03T22:41:07.800Z,6.70
2018-01-03T22:43:35.861Z,6.80
2018-01-03T22:46:03.894Z,6.70
2018-01-03T22:48:32.712Z,6.60
2018-01-03T22:51:00.745Z,6.60
2018-01-03T22:53:28.799Z,6.60
2018-01-03T22:55:56.857Z,6.60
2018-01-03T22:58:24.903Z,6.60
2018-01-03T23:00:52.956Z,6.60
2018-01-03T23:03:20.977Z,6.50
2018-01-03T23:05:49.029Z,6.60
2018-01-03T23:08:17.076Z,6.60
2018-01-03T23:10:45.105Z,6.60
2018-01-03T23:13:13.164Z,6.70
2018-01-03T23:15:41.197Z,6.70
2018-01-03T23:18:09.252Z,6.60
2018-01-03T23:20:37.297Z,6.60
2018-01-03T23:23:05.328Z,6.60
2018-01-03T23:25:33.393Z,6.60
2018-01-03T23:28:01.433Z,6.50
2018-01-03T23:30:30.450Z,6.50
2018-01-03T23:32:58.559Z,6.50
2018-01-03T23:35:27.534Z,6.40
2018-01-03T23:37:56.362Z,6.40
2018-01-03T23:40:24.393Z,6.40
2018-01-03T23:42:52.450Z,6.50
2018-01-03T23:45:20.497Z,6.50
2018-01-03T23:47:48.529Z,6.50
2018-01-03T23:50:16.573Z,6.50
2018-01-03T23:52:44.704Z,6.60
2018-01-03T23:55:12.725Z,6.60
2018-01-03T23:57:41.553Z,6.60
